Detall de PIREP

Printer-friendly versionPDF version

[2013/01/04 09:20:00]
Flight IATA:CT1005
Pilot Number:011
Company ICAO:CAT
Aircraft Type:F28/A
PAX:85
Departing Airport: LBPD
Destination Airport: LCPH
Alternate Airport:LCNC
Online: VATSIM
Route:PODIN UN739 ADORU UL606 EKI UT40 CRD UN131 AYT UM855 DASNI UW195 TOBAL
Flight Level:F290
No Slew and time accel
No pause
Crash detect
Detect pilot in Cockpit between each 30 and 45 minutes
09:20 Zero fuel Weight: 59923 Lbs, Fuel Weight: 13725 Lbs
09:20 VATSIM:LBPD 040900Z 29012MPS CAVOK 11/01 Q1021 NOSIG
09:20 VATSIM:LCPH 040900Z 14008KT 7000 -TSRA FEW015 FEW020TCU FEW025CB BKN070 16/12 Q1019
09:26 Parking Brakes off
09:38 Take-off
09:38 Take off Weight: 72326 Lbs
09:38 Wind: 287º @ 023 Knots Heading: 305º
09:38 POS N42º 04´ 02´´ E024º 51´ 05´´
09:38 Flaps:3 at 147 Knots
09:38 Gear Up: 148 Knots
09:39 Flaps:2 at 200 Knots
09:39 Flaps:1 at 211 Knots
09:39 Flaps:0 at 218Knots
09:53 Wind:276º@035 Knots Heading: 098º Ground Speed: 416 Knots Altitude 27135 ft
09:54 TOC
09:54 Fuel Weight: 11016 Lb
10:08 Wind:249º@024 Knots Heading: 153º Ground Speed: 441 Knots Altitude 29265 ft
10:23 Wind:312º@014 Knots Heading: 151º Ground Speed: 455 Knots Altitude 29219 ft
10:50 TOD
10:50 Fuel Weight: 6628 Lb
11:11 Flaps:1 at 226 Knots
11:11 Flaps:2 at 207 Knots
11:12 Flaps:3 at 187 Knots
11:12 Gear Down: 181 Knots
11:13 Flaps:4 at 157 Knots
11:14 Flaps:5 at 150 Knots
11:18 TouchDown:Rate -325 ft/min Speed: 121 Knots
11:18 Flaps:0 at 50 Knots
11:18 VATSIM:LCPH 041100Z 28003KT 240V340 9999 -RA FEW020 FEW025TCU BKN060 14/12 Q1017
11:18 Land
11:18 Wind:277º@003 Knots
11:18 Heading: 293º
11:18 Flight Duration: 01:40
11:18 Landing Weight: 64200 Lbs
11:18 POS N34º 43´ 11´´ E032º 28´ 59´´
11:23 Parking brakes on
11:23 Block to Block Duration: 01:57
11:23 Final Fuel: 4903 Lbls
11:23 Spent Fuel: 8822 Lbls
11:23 Flight Length: 204 NM
11:23 TOD Land Length: 00 NM

Exportar CSV

Powered by Drupal - Modified by Danger4k